Terminal Aerodrome Forecast
Issued by NWS

Home | Current Version | Previous Version | Text Only | Print | Product List | Glossary On
Versions: 1 2 3 4 5 6 7 8 9 10 11 12 13 14 15 16
584
FTUS46 KPDT 061120
TAFPSC
TAF
KPSC 061120Z 0612/0712 24012KT P6SM SCT090
     FM061600 23012KT P6SM SCT150 BKN200
     FM070200 VRB05KT P6SM SCT100 BKN150=

USA.gov is the U.S. government's official web portal to all federal, state and local government web resources and services.